createdAt,value
2017-06-26T00:01:13.471Z,99375.06
2017-06-26T00:03:40.914Z,99374.85
2017-06-26T00:06:08.386Z,99378.16
2017-06-26T00:08:36.378Z,99376.72
2017-06-26T00:11:05.544Z,99375.79
2017-06-26T00:13:34.355Z,99382.52
2017-06-26T00:16:01.815Z,99376.64
2017-06-26T00:18:29.988Z,99379.62
2017-06-26T00:20:58.719Z,99382.34
2017-06-26T00:23:27.098Z,99377.77
2017-06-26T00:25:55.334Z,99376.75
2017-06-26T00:28:23.109Z,99374.88
2017-06-26T00:30:52.104Z,99377.80
2017-06-26T00:33:20.787Z,99369.41
2017-06-26T00:35:49.192Z,99367.05
2017-06-26T00:38:16.994Z,99372.33
2017-06-26T00:40:45.922Z,99365.49
2017-06-26T00:43:15.222Z,99357.84
2017-06-26T00:45:43.649Z,99367.25
2017-06-26T00:48:12.084Z,99371.48
2017-06-26T00:50:39.916Z,99375.75
2017-06-26T00:53:07.991Z,99376.37
2017-06-26T00:55:36.203Z,99372.62
2017-06-26T00:58:04.843Z,99354.53
2017-06-26T01:00:32.758Z,99367.69
2017-06-26T01:03:01.153Z,99366.22
2017-06-26T01:05:28.893Z,99370.55
2017-06-26T01:07:56.971Z,99356.69
2017-06-26T01:10:24.799Z,99365.48
2017-06-26T01:12:52.815Z,99361.57
2017-06-26T01:15:20.895Z,99359.38
2017-06-26T01:17:49.266Z,99355.25
2017-06-26T01:20:16.822Z,99357.83
2017-06-26T01:22:44.388Z,99351.74
2017-06-26T01:25:12.252Z,99353.37
2017-06-26T01:27:41.151Z,99355.05
2017-06-26T01:30:08.911Z,99349.78
2017-06-26T01:32:36.774Z,99351.86
2017-06-26T01:35:04.309Z,99349.17
2017-06-26T01:37:32.306Z,99341.42
2017-06-26T01:40:00.379Z,99343.50
2017-06-26T01:42:27.982Z,99348.88
2017-06-26T01:44:56.070Z,99339.97
2017-06-26T01:47:24.482Z,99339.76
2017-06-26T01:49:52.544Z,99341.10
2017-06-26T01:52:20.332Z,99329.23
2017-06-26T01:54:49.199Z,99333.27
2017-06-26T01:57:17.607Z,99334.09
2017-06-26T01:59:45.206Z,99338.20
2017-06-26T02:02:13.234Z,99334.17
2017-06-26T02:04:41.206Z,99330.98
2017-06-26T02:07:09.380Z,99333.88
2017-06-26T02:09:37.664Z,99332.42
2017-06-26T02:12:06.118Z,99330.78
2017-06-26T02:14:34.213Z,99333.77
2017-06-26T02:17:01.959Z,99326.02
2017-06-26T02:19:30.051Z,99326.55
2017-06-26T02:21:58.724Z,99325.09
2017-06-26T02:24:26.510Z,99328.91
2017-06-26T02:26:54.624Z,99325.41
2017-06-26T02:29:23.167Z,99324.59
2017-06-26T02:31:51.085Z,99323.04
2017-06-26T02:34:19.006Z,99322.80
2017-06-26T02:36:46.470Z,99325.08
2017-06-26T02:39:13.995Z,99321.98
2017-06-26T02:41:42.607Z,99318.68
2017-06-26T02:44:10.776Z,99323.77
2017-06-26T02:46:39.156Z,99324.80
2017-06-26T02:49:06.981Z,99328.73
2017-06-26T02:51:34.450Z,99329.96
2017-06-26T02:54:03.695Z,99325.73
2017-06-26T02:56:32.276Z,99331.11
2017-06-26T02:58:59.823Z,99333.80
2017-06-26T03:01:28.416Z,99335.66
2017-06-26T03:03:56.519Z,99336.27
2017-06-26T03:06:23.953Z,99335.86
2017-06-26T03:08:51.716Z,99335.55
2017-06-26T03:11:20.194Z,99340.02
2017-06-26T03:13:48.299Z,99334.20
2017-06-26T03:16:15.928Z,99334.11
2017-06-26T03:18:43.438Z,99335.98
2017-06-26T03:21:10.955Z,99325.52
2017-06-26T03:23:40.590Z,99333.79
2017-06-26T03:26:09.238Z,99339.90
2017-06-26T03:28:36.698Z,99337.82
2017-06-26T03:31:04.663Z,99342.79
2017-06-26T03:33:32.435Z,99349.62
2017-06-26T03:36:01.131Z,99350.77
2017-06-26T03:38:29.308Z,99347.34
2017-06-26T03:40:57.574Z,99350.56
2017-06-26T03:43:25.346Z,99347.14
2017-06-26T03:45:54.170Z,99357.08
2017-06-26T03:48:22.787Z,99361.31
2017-06-26T03:50:50.816Z,99356.34
2017-06-26T03:53:19.267Z,99359.64
2017-06-26T03:55:47.831Z,99359.44
2017-06-26T03:58:16.045Z,99360.78
2017-06-26T04:00:44.842Z,99366.89
2017-06-26T04:03:12.494Z,99366.16
2017-06-26T04:05:40.520Z,99371.85
2017-06-26T04:08:08.728Z,99371.77
2017-06-26T04:10:36.275Z,99373.93
2017-06-26T04:13:04.026Z,99369.90
2017-06-26T04:15:32.302Z,99373.93
2017-06-26T04:18:00.402Z,99372.30
2017-06-26T04:20:28.264Z,99365.25
2017-06-26T04:22:56.762Z,99373.64
2017-06-26T04:25:24.731Z,99373.02
2017-06-26T04:27:52.194Z,99376.41
2017-06-26T04:30:20.243Z,99378.89
2017-06-26T04:32:48.322Z,99375.80
2017-06-26T04:35:16.298Z,99373.02
2017-06-26T04:37:45.293Z,99377.46
2017-06-26T04:40:13.675Z,99378.30
2017-06-26T04:42:41.202Z,99380.98
2017-06-26T04:45:09.507Z,99385.44
2017-06-26T04:47:37.567Z,99385.41
2017-06-26T04:50:06.098Z,99388.00
2017-06-26T04:52:33.624Z,99384.70
2017-06-26T04:55:01.585Z,99381.40
2017-06-26T04:57:29.664Z,99382.13
2017-06-26T04:59:57.395Z,99382.13
2017-06-26T05:02:25.702Z,99382.33
2017-06-26T05:04:53.782Z,99392.14
2017-06-26T05:07:21.610Z,99391.13
2017-06-26T05:09:49.095Z,99390.59
2017-06-26T05:12:17.085Z,99398.95
2017-06-26T05:14:45.461Z,99399.91
2017-06-26T05:17:13.474Z,99401.44
2017-06-26T05:19:41.624Z,99401.96
2017-06-26T05:22:09.676Z,99409.50
2017-06-26T05:24:37.469Z,99409.50
2017-06-26T05:27:05.407Z,99408.89
2017-06-26T05:29:33.063Z,99408.68
2017-06-26T05:32:01.020Z,99409.09
2017-06-26T05:34:28.995Z,99412.39
2017-06-26T05:36:56.884Z,99414.87
2017-06-26T05:39:24.728Z,99412.39
2017-06-26T05:41:52.715Z,99413.74
2017-06-26T05:44:20.582Z,99414.67
2017-06-26T05:46:48.662Z,99425.34
2017-06-26T05:49:17.556Z,99420.38
2017-06-26T05:51:45.398Z,99422.42
2017-06-26T05:54:13.535Z,99418.39
2017-06-26T05:56:41.463Z,99425.03
2017-06-26T05:59:09.538Z,99429.06
2017-06-26T06:01:37.789Z,99431.02
2017-06-26T06:04:05.807Z,99426.86
2017-06-26T06:06:33.737Z,99427.60
2017-06-26T06:09:01.221Z,99427.08
2017-06-26T06:11:29.080Z,99432.45
2017-06-26T06:13:57.154Z,99425.84
2017-06-26T06:16:24.814Z,99429.77
2017-06-26T06:18:53.197Z,99428.83
2017-06-26T06:21:22.248Z,99430.70
2017-06-26T06:23:49.701Z,99435.55
2017-06-26T06:26:17.160Z,99432.86
2017-06-26T06:28:44.897Z,99430.70
2017-06-26T06:31:12.939Z,99436.37
2017-06-26T06:33:40.715Z,99430.91
2017-06-26T06:36:08.209Z,99427.09
2017-06-26T06:38:36.228Z,99419.72
2017-06-26T06:41:04.007Z,99420.88
2017-06-26T06:43:31.475Z,99415.06
2017-06-26T06:45:59.404Z,99417.05
2017-06-26T06:48:27.094Z,99410.73
2017-06-26T06:50:54.859Z,99408.66
2017-06-26T06:53:22.628Z,99402.76
2017-06-26T06:55:50.483Z,99414.22
2017-06-26T06:58:18.767Z,99416.73
2017-06-26T07:00:46.546Z,99412.17
2017-06-26T07:03:14.499Z,99409.48
2017-06-26T07:05:41.983Z,99407.73
2017-06-26T07:08:09.509Z,99404.30
2017-06-26T07:10:37.471Z,99404.22
2017-06-26T07:13:05.017Z,99406.06
2017-06-26T07:15:33.023Z,99400.77
2017-06-26T07:18:00.608Z,99399.44
2017-06-26T07:20:28.245Z,99397.75
2017-06-26T07:22:56.315Z,99405.63
2017-06-26T07:25:23.991Z,99406.24
2017-06-26T07:27:51.572Z,99412.65
2017-06-26T07:30:19.842Z,99408.30
2017-06-26T07:32:47.268Z,99409.33
2017-06-26T07:35:15.463Z,99408.27
2017-06-26T07:37:43.527Z,99409.80
2017-06-26T07:40:10.999Z,99405.36
2017-06-26T07:42:39.274Z,99393.45
2017-06-26T07:45:06.836Z,99390.85
2017-06-26T07:47:34.342Z,99390.77
2017-06-26T07:50:01.827Z,99398.77
2017-06-26T07:52:29.603Z,99392.98
2017-06-26T07:54:57.086Z,99397.52
2017-06-26T07:57:24.720Z,99391.69
2017-06-26T07:59:52.211Z,99395.03
2017-06-26T08:02:19.847Z,99395.64
2017-06-26T08:04:47.615Z,99391.48
2017-06-26T08:07:15.094Z,99403.52
2017-06-26T08:09:43.114Z,99407.31
2017-06-26T08:12:11.217Z,99409.48
2017-06-26T08:14:39.148Z,99398.63
2017-06-26T08:17:07.364Z,99407.23
2017-06-26T08:19:34.807Z,99408.45
2017-06-26T08:22:02.683Z,99399.89
2017-06-26T08:24:30.475Z,99397.19
2017-06-26T08:26:59.320Z,99404.30
2017-06-26T08:29:26.798Z,99403.69
2017-06-26T08:31:54.875Z,99403.28
2017-06-26T08:34:22.775Z,99401.73
2017-06-26T08:36:51.431Z,99399.36
2017-06-26T08:39:19.726Z,99405.56
2017-06-26T08:41:47.174Z,99402.66
2017-06-26T08:44:15.442Z,99390.70
2017-06-26T08:46:42.919Z,99385.23
2017-06-26T08:49:11.036Z,99390.94
2017-06-26T08:51:38.507Z,99393.13
2017-06-26T08:54:06.303Z,99401.73
2017-06-26T08:56:34.376Z,99398.25
2017-06-26T08:59:02.252Z,99401.45
2017-06-26T09:01:30.032Z,99397.95
2017-06-26T09:03:57.674Z,99401.59
2017-06-26T09:06:25.205Z,99399.61
2017-06-26T09:08:52.711Z,99406.73
2017-06-26T09:11:20.359Z,99409.11
2017-06-26T09:13:48.211Z,99404.29
2017-06-26T09:16:15.780Z,99408.61
2017-06-26T09:18:43.863Z,99403.85
2017-06-26T09:21:11.400Z,99408.41
2017-06-26T09:23:38.970Z,99403.53
2017-06-26T09:26:06.542Z,99396.70
2017-06-26T09:28:34.743Z,99399.68
2017-06-26T09:31:02.576Z,99391.61
2017-06-26T09:33:30.103Z,99398.33
2017-06-26T09:35:57.599Z,99401.88
2017-06-26T09:38:25.422Z,99402.37
2017-06-26T09:40:53.088Z,99396.14
2017-06-26T09:43:20.686Z,99398.83
2017-06-26T09:45:48.179Z,99392.98
2017-06-26T09:48:15.679Z,99394.97
2017-06-26T09:50:43.465Z,99394.09
2017-06-26T09:53:11.160Z,99396.26
2017-06-26T09:55:39.206Z,99394.80
2017-06-26T09:58:06.960Z,99393.73
2017-06-26T10:00:35.187Z,99390.87
2017-06-26T10:03:02.647Z,99392.95
2017-06-26T10:05:30.372Z,99390.64
2017-06-26T10:07:58.446Z,99391.54
2017-06-26T10:10:26.187Z,99398.88
2017-06-26T10:12:53.620Z,99388.28
2017-06-26T10:15:21.242Z,99383.10
2017-06-26T10:17:49.094Z,99384.77
2017-06-26T10:20:17.864Z,99379.92
2017-06-26T10:22:45.667Z,99381.72
2017-06-26T10:25:13.722Z,99386.44
2017-06-26T10:27:41.455Z,99383.84
2017-06-26T10:30:09.452Z,99382.69
2017-06-26T10:32:37.219Z,99375.22
2017-06-26T10:35:05.217Z,99371.07
2017-06-26T10:37:33.060Z,99367.36
2017-06-26T10:40:01.025Z,99368.09
2017-06-26T10:42:28.791Z,99368.63
2017-06-26T10:44:56.327Z,99365.73
2017-06-26T10:47:23.919Z,99374.83
2017-06-26T10:49:51.685Z,99367.61
2017-06-26T10:52:20.126Z,99365.11
2017-06-26T10:54:47.887Z,99358.71
2017-06-26T10:57:15.631Z,99360.06
2017-06-26T10:59:43.355Z,99362.34
2017-06-26T11:02:11.008Z,99365.15
2017-06-26T11:04:38.575Z,99358.92
2017-06-26T11:07:06.860Z,99360.79
2017-06-26T11:09:34.400Z,99343.94
2017-06-26T11:12:02.079Z,99351.90
2017-06-26T11:14:30.151Z,99346.40
2017-06-26T11:16:58.226Z,99346.89
2017-06-26T11:19:25.994Z,99343.05
2017-06-26T11:21:53.477Z,99357.24
2017-06-26T11:24:21.503Z,99344.76
2017-06-26T11:26:49.499Z,99347.65
2017-06-26T11:29:17.100Z,99341.62
2017-06-26T11:31:45.420Z,99349.48
2017-06-26T11:34:13.368Z,99339.98
2017-06-26T11:36:41.572Z,99350.73
2017-06-26T11:39:09.019Z,99339.32
2017-06-26T11:41:36.635Z,99334.66
2017-06-26T11:44:05.143Z,99329.36
2017-06-26T11:46:32.949Z,99338.33
2017-06-26T11:49:00.807Z,99338.28
2017-06-26T11:51:28.783Z,99337.21
2017-06-26T11:53:56.863Z,99336.05
2017-06-26T11:56:24.644Z,99330.75
2017-06-26T11:58:53.250Z,99328.38
2017-06-26T12:01:21.578Z,99326.70
2017-06-26T12:03:49.032Z,99335.39
2017-06-26T12:06:16.673Z,99327.25
2017-06-26T12:08:44.243Z,99315.94
2017-06-26T12:11:12.285Z,99316.02
2017-06-26T12:13:40.041Z,99314.41
2017-06-26T12:16:07.835Z,99307.66
2017-06-26T12:18:35.551Z,99312.11
2017-06-26T12:21:04.201Z,99312.52
2017-06-26T12:23:31.847Z,99310.52
2017-06-26T12:26:00.271Z,99320.20
2017-06-26T12:28:28.890Z,99317.05
2017-06-26T12:30:57.220Z,99310.51
2017-06-26T12:33:24.678Z,99307.67
2017-06-26T12:35:52.163Z,99312.23
2017-06-26T12:38:19.627Z,99301.08
2017-06-26T12:40:47.136Z,99306.73
2017-06-26T12:43:15.026Z,99306.11
2017-06-26T12:45:42.584Z,99301.77
2017-06-26T12:48:10.332Z,99302.05
2017-06-26T12:50:38.332Z,99305.42
2017-06-26T12:53:06.403Z,99295.23
2017-06-26T12:55:34.323Z,99296.99
2017-06-26T12:58:02.689Z,99294.48
2017-06-26T13:00:30.969Z,99308.52
2017-06-26T13:02:58.688Z,99303.44
2017-06-26T13:05:27.473Z,99295.69
2017-06-26T13:07:55.111Z,99287.19
2017-06-26T13:10:23.211Z,99286.59
2017-06-26T13:12:50.974Z,99286.80
2017-06-26T13:15:18.836Z,99280.12
2017-06-26T13:17:46.688Z,99284.29
2017-06-26T13:20:14.179Z,99275.11
2017-06-26T13:22:41.611Z,99285.02
2017-06-26T13:25:09.392Z,99279.80
2017-06-26T13:27:37.168Z,99278.19
2017-06-26T13:30:05.728Z,99278.77
2017-06-26T13:32:33.942Z,99287.44
2017-06-26T13:35:01.855Z,99278.02
2017-06-26T13:37:29.951Z,99268.73
2017-06-26T13:39:57.827Z,99274.53
2017-06-26T13:42:25.949Z,99270.80
2017-06-26T13:44:53.666Z,99260.83
2017-06-26T13:47:21.304Z,99264.47
2017-06-26T13:49:49.033Z,99259.48
2017-06-26T13:52:16.655Z,99259.60
2017-06-26T13:54:44.612Z,99256.56
2017-06-26T13:57:13.211Z,99251.86
2017-06-26T13:59:40.710Z,99255.41
2017-06-26T14:02:08.520Z,99259.86
2017-06-26T14:04:36.171Z,99246.11
2017-06-26T14:07:04.580Z,99255.66
2017-06-26T14:09:32.071Z,99244.14
2017-06-26T14:11:59.831Z,99253.86
2017-06-26T14:14:27.926Z,99245.48
2017-06-26T14:16:55.430Z,99237.86
2017-06-26T14:19:24.015Z,99234.29
2017-06-26T14:21:51.722Z,99243.54
2017-06-26T14:24:19.323Z,99242.91
2017-06-26T14:26:46.827Z,99226.48
2017-06-26T14:29:15.186Z,99228.83
2017-06-26T14:31:43.218Z,99234.22
2017-06-26T14:34:11.636Z,99231.42
2017-06-26T14:36:39.499Z,99230.39
2017-06-26T14:39:07.283Z,99220.88
2017-06-26T14:41:36.260Z,99221.19
2017-06-26T14:44:04.238Z,99221.47
2017-06-26T14:46:31.802Z,99226.42
2017-06-26T14:48:59.998Z,99228.77
2017-06-26T14:51:27.500Z,99216.91
2017-06-26T14:53:56.087Z,99218.73
2017-06-26T14:56:23.877Z,99215.22
2017-06-26T14:58:51.742Z,99206.72
2017-06-26T15:01:19.594Z,99202.95
2017-06-26T15:03:47.382Z,99201.91
2017-06-26T15:06:15.150Z,99208.81
2017-06-26T15:08:43.215Z,99200.72
2017-06-26T15:11:11.167Z,99202.41
2017-06-26T15:13:39.367Z,99204.11
2017-06-26T15:16:07.208Z,99195.20
2017-06-26T15:18:35.096Z,99201.36
2017-06-26T15:21:03.354Z,99198.91
2017-06-26T15:23:31.347Z,99198.36
2017-06-26T15:25:58.794Z,99199.42
2017-06-26T15:28:26.690Z,99192.37
2017-06-26T15:30:54.966Z,99191.09
2017-06-26T15:33:22.786Z,99194.13
2017-06-26T15:35:50.886Z,99199.53
2017-06-26T15:38:18.760Z,99188.55
2017-06-26T15:40:46.837Z,99194.92
2017-06-26T15:43:14.479Z,99188.03
2017-06-26T15:45:42.338Z,99191.98
2017-06-26T15:48:19.233Z,99192.87
2017-06-26T15:50:47.252Z,99189.48
2017-06-26T15:53:14.687Z,99180.45
2017-06-26T15:55:43.659Z,99180.16
2017-06-26T15:58:11.433Z,99184.66
2017-06-26T16:00:39.908Z,99181.27
2017-06-26T16:03:07.980Z,99175.28
2017-06-26T16:05:35.435Z,99171.27
2017-06-26T16:08:03.640Z,99173.68
2017-06-26T16:10:31.791Z,99171.20
2017-06-26T16:12:59.290Z,99170.11
2017-06-26T16:15:27.016Z,99162.77
2017-06-26T16:17:54.779Z,99163.48
2017-06-26T16:20:22.577Z,99165.53
2017-06-26T16:22:50.411Z,99163.18
2017-06-26T16:25:18.275Z,99151.48
2017-06-26T16:27:46.162Z,99154.90
2017-06-26T16:30:14.135Z,99156.59
2017-06-26T16:32:41.603Z,99148.09
2017-06-26T16:35:10.427Z,99143.37
2017-06-26T16:37:37.953Z,99144.78
2017-06-26T16:40:05.906Z,99138.84
2017-06-26T16:42:34.025Z,99141.25
2017-06-26T16:45:01.500Z,99135.98
2017-06-26T16:47:29.207Z,99137.63
2017-06-26T16:49:56.931Z,99139.03
2017-06-26T16:52:24.541Z,99136.56
2017-06-26T16:54:52.490Z,99138.34
2017-06-26T16:57:20.148Z,99141.95
2017-06-26T16:59:48.018Z,99138.91
2017-06-26T17:02:16.649Z,99144.73
2017-06-26T17:04:44.361Z,99144.42
2017-06-26T17:07:12.447Z,99143.12
2017-06-26T17:09:40.044Z,99139.53
2017-06-26T17:12:07.522Z,99140.16
2017-06-26T17:14:35.227Z,99142.40
2017-06-26T17:17:02.731Z,99145.33
2017-06-26T17:19:30.552Z,99138.80
2017-06-26T17:21:58.323Z,99135.16
2017-06-26T17:24:25.879Z,99129.63
2017-06-26T17:26:53.952Z,99126.39
2017-06-26T17:29:21.511Z,99126.56
2017-06-26T17:31:50.095Z,99128.73
2017-06-26T17:34:17.892Z,99116.75
2017-06-26T17:36:45.422Z,99115.41
2017-06-26T17:39:12.874Z,99113.52
2017-06-26T17:41:40.483Z,99113.41
2017-06-26T17:44:07.956Z,99117.70
2017-06-26T17:46:35.391Z,99108.38
2017-06-26T17:49:02.833Z,99118.23
2017-06-26T17:51:30.678Z,99111.17
2017-06-26T17:53:58.647Z,99110.58
2017-06-26T17:56:26.165Z,99112.66
2017-06-26T17:58:53.851Z,99110.58
2017-06-26T18:01:21.464Z,99112.38
2017-06-26T18:03:49.466Z,99113.72
2017-06-26T18:06:16.943Z,99102.20
2017-06-26T18:08:44.939Z,99107.61
2017-06-26T18:11:13.227Z,99102.84
2017-06-26T18:13:41.163Z,99102.25
2017-06-26T18:16:08.847Z,99096.80
2017-06-26T18:18:36.835Z,99099.20
2017-06-26T18:21:04.406Z,99094.14
2017-06-26T18:23:32.244Z,99096.44
2017-06-26T18:26:00.167Z,99095.91
2017-06-26T18:28:27.760Z,99096.21
2017-06-26T18:30:55.257Z,99093.47
2017-06-26T18:33:23.506Z,99101.71
2017-06-26T18:35:50.967Z,99105.41
2017-06-26T18:38:18.749Z,99102.21
2017-06-26T18:40:46.910Z,99108.73
2017-06-26T18:43:15.181Z,99111.30
2017-06-26T18:45:44.134Z,99119.41
2017-06-26T18:48:11.780Z,99118.91
2017-06-26T18:50:39.797Z,99123.23
2017-06-26T18:53:08.630Z,99122.83
2017-06-26T18:55:36.880Z,99123.83
2017-06-26T18:58:04.939Z,99125.94
2017-06-26T19:00:32.459Z,99127.78
2017-06-26T19:03:01.110Z,99124.13
2017-06-26T19:05:29.152Z,99118.73
2017-06-26T19:07:56.936Z,99116.97
2017-06-26T19:10:25.012Z,99122.20
2017-06-26T19:12:52.640Z,99120.72
2017-06-26T19:15:20.111Z,99123.95
2017-06-26T19:17:48.098Z,99133.41
2017-06-26T19:20:15.690Z,99133.23
2017-06-26T19:22:43.184Z,99140.30
2017-06-26T19:25:10.983Z,99143.51
2017-06-26T19:27:38.760Z,99148.23
2017-06-26T19:30:06.789Z,99147.92
2017-06-26T19:32:34.496Z,99143.05
2017-06-26T19:35:02.917Z,99145.89
2017-06-26T19:37:30.640Z,99144.53
2017-06-26T19:39:58.403Z,99141.78
2017-06-26T19:42:27.826Z,99142.19
2017-06-26T19:44:56.485Z,99145.13
2017-06-26T19:47:24.558Z,99149.00
2017-06-26T19:49:52.834Z,99149.89
2017-06-26T19:52:21.626Z,99146.47
2017-06-26T19:54:49.367Z,99148.59
2017-06-26T19:57:17.289Z,99150.62
2017-06-26T19:59:44.949Z,99151.03
2017-06-26T20:02:12.994Z,99157.61
2017-06-26T20:04:40.642Z,99163.27
2017-06-26T20:07:08.532Z,99162.02
2017-06-26T20:09:36.292Z,99161.44
2017-06-26T20:12:03.835Z,99163.58
2017-06-26T20:14:31.523Z,99168.80
2017-06-26T20:16:59.690Z,99158.76
2017-06-26T20:19:27.662Z,99157.13
2017-06-26T20:21:55.232Z,99155.06
2017-06-26T20:24:23.906Z,99157.70
2017-06-26T20:26:52.194Z,99157.52
2017-06-26T20:29:19.640Z,99157.64
2017-06-26T20:31:48.331Z,99162.58
2017-06-26T20:34:16.670Z,99158.18
2017-06-26T20:36:44.215Z,99158.12
2017-06-26T20:39:11.720Z,99158.98
2017-06-26T20:41:39.211Z,99157.88
2017-06-26T20:44:07.259Z,99160.69
2017-06-26T20:46:35.126Z,99158.16
2017-06-26T20:49:03.482Z,99164.11
2017-06-26T20:51:31.706Z,99160.06
2017-06-26T20:53:59.696Z,99166.74
2017-06-26T20:56:28.272Z,99161.47
2017-06-26T20:58:55.719Z,99164.74
2017-06-26T21:01:24.183Z,99156.33
2017-06-26T21:03:51.743Z,99156.69
2017-06-26T21:06:19.918Z,99159.40
2017-06-26T21:08:47.598Z,99170.01
2017-06-26T21:11:15.347Z,99175.44
2017-06-26T21:13:43.240Z,99180.25
2017-06-26T21:16:10.899Z,99178.69
2017-06-26T21:18:38.843Z,99174.69
2017-06-26T21:21:06.605Z,99176.98
2017-06-26T21:23:34.052Z,99175.76
2017-06-26T21:26:02.963Z,99176.03
2017-06-26T21:28:31.236Z,99169.77
2017-06-26T21:30:58.915Z,99167.23
2017-06-26T21:33:26.771Z,99163.59
2017-06-26T21:35:54.843Z,99166.23
2017-06-26T21:38:22.598Z,99173.10
2017-06-26T21:40:50.544Z,99167.45
2017-06-26T21:43:20.077Z,99170.31
2017-06-26T21:45:48.150Z,99168.12
2017-06-26T21:48:16.123Z,99160.16
2017-06-26T21:50:43.951Z,99157.05
2017-06-26T21:53:12.878Z,99157.52
2017-06-26T21:55:40.604Z,99150.59
2017-06-26T21:58:08.998Z,99154.56
2017-06-26T22:00:36.793Z,99148.82
2017-06-26T22:03:04.663Z,99150.23
2017-06-26T22:05:32.525Z,99150.36
2017-06-26T22:08:00.103Z,99150.23
2017-06-26T22:10:27.778Z,99152.11
2017-06-26T22:12:55.950Z,99147.99
2017-06-26T22:15:24.144Z,99151.58
2017-06-26T22:17:52.279Z,99145.35
2017-06-26T22:20:20.637Z,99145.64
2017-06-26T22:22:48.102Z,99143.61
2017-06-26T22:25:16.490Z,99143.66
2017-06-26T22:27:44.162Z,99140.03
2017-06-26T22:30:12.796Z,99137.21
2017-06-26T22:32:40.514Z,99143.72
2017-06-26T22:35:08.782Z,99136.50
2017-06-26T22:37:36.952Z,99136.16
2017-06-26T22:40:04.624Z,99133.69
2017-06-26T22:42:32.226Z,99129.64
2017-06-26T22:44:59.736Z,99138.38
2017-06-26T22:47:27.403Z,99135.22
2017-06-26T22:49:54.975Z,99128.66
2017-06-26T22:52:22.642Z,99136.97
2017-06-26T22:54:50.532Z,99139.02
2017-06-26T22:57:18.671Z,99132.17
2017-06-26T22:59:46.438Z,99136.34
2017-06-26T23:02:14.411Z,99136.56
2017-06-26T23:04:41.863Z,99128.25
2017-06-26T23:07:09.626Z,99133.64
2017-06-26T23:09:37.243Z,99123.54
2017-06-26T23:12:04.999Z,99124.20
2017-06-26T23:14:32.955Z,99121.09
2017-06-26T23:17:01.750Z,99111.75
2017-06-26T23:19:29.483Z,99114.61
2017-06-26T23:21:56.915Z,99116.37
2017-06-26T23:24:25.522Z,99120.13
2017-06-26T23:26:53.190Z,99120.56
2017-06-26T23:29:21.261Z,99126.13
2017-06-26T23:31:48.823Z,99123.83
2017-06-26T23:34:16.590Z,99127.00
2017-06-26T23:36:44.079Z,99127.41
2017-06-26T23:39:11.910Z,99122.13
2017-06-26T23:41:41.313Z,99118.16
2017-06-26T23:44:08.980Z,99115.84
2017-06-26T23:46:36.975Z,99117.60
2017-06-26T23:49:05.051Z,99107.39
2017-06-26T23:51:32.792Z,99114.00
2017-06-26T23:54:01.240Z,99118.88
2017-06-26T23:56:28.930Z,99107.30
2017-06-26T23:58:56.841Z,99110.57
